Terminal Aerodrome Forecast
Issued by NWS Northern Indiana

Home | Current Version | Previous Version | Graphics & Text | Print | Product List | Glossary On
Versions: 1 2 3 4 5 6 7 8 9 10 11 12
548
FTUS43 KIWX 232336
TAFFWA
TAF
KFWA 232336Z 2400/2424 21005KT P6SM FEW250
     FM241600 20014G22KT P6SM FEW150 BKN200=

USA.gov is the U.S. government's official web portal to all federal, state and local government web resources and services.